sensor_id;sensor_type;location;lat;lon;timestamp;temperature;humidity
16523;DHT22;19889;52.546;13.348;2022-10-17T00:01:17;16.70;99.90
16523;DHT22;19889;52.546;13.348;2022-10-17T00:03:44;16.70;99.90
16523;DHT22;19889;52.546;13.348;2022-10-17T00:06:13;16.70;99.90
16523;DHT22;19889;52.546;13.348;2022-10-17T00:08:41;16.70;99.90
16523;DHT22;19889;52.546;13.348;2022-10-17T00:11:13;16.70;99.90
16523;DHT22;19889;52.546;13.348;2022-10-17T00:13:41;16.70;99.90
16523;DHT22;19889;52.546;13.348;2022-10-17T00:16:08;16.70;99.90
16523;DHT22;19889;52.546;13.348;2022-10-17T00:18:36;16.70;99.90
16523;DHT22;19889;52.546;13.348;2022-10-17T00:21:03;16.70;99.90
16523;DHT22;19889;52.546;13.348;2022-10-17T00:23:30;16.70;99.90
16523;DHT22;19889;52.546;13.348;2022-10-17T00:25:58;16.70;99.90
16523;DHT22;19889;52.546;13.348;2022-10-17T00:28:25;16.70;99.90
16523;DHT22;19889;52.546;13.348;2022-10-17T00:30:55;16.70;99.90
16523;DHT22;19889;52.546;13.348;2022-10-17T00:33:22;16.70;99.90
16523;DHT22;19889;52.546;13.348;2022-10-17T00:35:50;16.80;99.90
16523;DHT22;19889;52.546;13.348;2022-10-17T00:38:18;16.80;99.90
16523;DHT22;19889;52.546;13.348;2022-10-17T00:40:45;16.80;99.90
16523;DHT22;19889;52.546;13.348;2022-10-17T00:43:16;16.70;99.90
16523;DHT22;19889;52.546;13.348;2022-10-17T00:45:43;16.80;99.90
16523;DHT22;19889;52.546;13.348;2022-10-17T00:48:11;16.80;99.90
16523;DHT22;19889;52.546;13.348;2022-10-17T00:50:40;16.80;99.90
16523;DHT22;19889;52.546;13.348;2022-10-17T00:53:10;16.80;99.90
16523;DHT22;19889;52.546;13.348;2022-10-17T00:55:41;16.70;99.90
16523;DHT22;19889;52.546;13.348;2022-10-17T00:58:09;16.70;99.90
16523;DHT22;19889;52.546;13.348;2022-10-17T01:00:36;16.70;99.90
16523;DHT22;19889;52.546;13.348;2022-10-17T01:03:03;16.70;99.90
16523;DHT22;19889;52.546;13.348;2022-10-17T01:05:30;16.70;99.90
16523;DHT22;19889;52.546;13.348;2022-10-17T01:08:07;16.80;99.90
16523;DHT22;19889;52.546;13.348;2022-10-17T01:10:42;16.80;99.90
16523;DHT22;19889;52.546;13.348;2022-10-17T01:13:18;16.80;99.90
16523;DHT22;19889;52.546;13.348;2022-10-17T01:15:56;16.80;99.90
16523;DHT22;19889;52.546;13.348;2022-10-17T01:18:41;16.80;99.90
16523;DHT22;19889;52.546;13.348;2022-10-17T01:21:32;16.80;99.90
16523;DHT22;19889;52.546;13.348;2022-10-17T01:27:09;16.80;99.90
16523;DHT22;19889;52.546;13.348;2022-10-17T01:30:01;16.80;99.90
16523;DHT22;19889;52.546;13.348;2022-10-17T01:32:37;16.70;99.90
16523;DHT22;19889;52.546;13.348;2022-10-17T01:35:09;16.70;99.90
16523;DHT22;19889;52.546;13.348;2022-10-17T01:37:42;16.70;99.90
16523;DHT22;19889;52.546;13.348;2022-10-17T01:40:14;16.70;99.90
16523;DHT22;19889;52.546;13.348;2022-10-17T01:42:50;16.70;99.90
16523;DHT22;19889;52.546;13.348;2022-10-17T01:45:22;16.70;99.90
16523;DHT22;19889;52.546;13.348;2022-10-17T01:47:53;16.70;99.90
16523;DHT22;19889;52.546;13.348;2022-10-17T01:50:26;16.70;99.90
16523;DHT22;19889;52.546;13.348;2022-10-17T01:52:57;16.70;99.90
16523;DHT22;19889;52.546;13.348;2022-10-17T01:55:29;16.70;99.90
16523;DHT22;19889;52.546;13.348;2022-10-17T01:58:00;16.70;99.90
16523;DHT22;19889;52.546;13.348;2022-10-17T02:00:29;16.70;99.90
16523;DHT22;19889;52.546;13.348;2022-10-17T02:02:59;16.70;99.90
16523;DHT22;19889;52.546;13.348;2022-10-17T02:05:29;16.70;99.90
16523;DHT22;19889;52.546;13.348;2022-10-17T02:07:57;16.70;99.90
16523;DHT22;19889;52.546;13.348;2022-10-17T02:10:31;16.70;99.90
16523;DHT22;19889;52.546;13.348;2022-10-17T02:13:03;16.70;99.90
16523;DHT22;19889;52.546;13.348;2022-10-17T02:15:58;16.70;99.90
16523;DHT22;19889;52.546;13.348;2022-10-17T02:18:43;16.70;99.90
16523;DHT22;19889;52.546;13.348;2022-10-17T02:21:17;16.70;99.90
16523;DHT22;19889;52.546;13.348;2022-10-17T02:23:50;16.70;99.90
16523;DHT22;19889;52.546;13.348;2022-10-17T02:26:25;16.70;99.90
16523;DHT22;19889;52.546;13.348;2022-10-17T02:28:58;16.70;99.90
16523;DHT22;19889;52.546;13.348;2022-10-17T02:31:32;16.70;99.90
16523;DHT22;19889;52.546;13.348;2022-10-17T02:34:03;16.80;99.90
16523;DHT22;19889;52.546;13.348;2022-10-17T02:36:37;16.80;99.90
16523;DHT22;19889;52.546;13.348;2022-10-17T02:39:06;16.80;99.90
16523;DHT22;19889;52.546;13.348;2022-10-17T02:41:35;16.80;99.90
16523;DHT22;19889;52.546;13.348;2022-10-17T02:44:05;16.90;99.90
16523;DHT22;19889;52.546;13.348;2022-10-17T02:46:33;16.90;99.90
16523;DHT22;19889;52.546;13.348;2022-10-17T02:49:06;16.90;99.90
16523;DHT22;19889;52.546;13.348;2022-10-17T02:51:41;16.90;99.90
16523;DHT22;19889;52.546;13.348;2022-10-17T02:54:15;16.90;99.90
16523;DHT22;19889;52.546;13.348;2022-10-17T02:56:47;16.90;99.90
16523;DHT22;19889;52.546;13.348;2022-10-17T02:59:17;17.00;99.90
16523;DHT22;19889;52.546;13.348;2022-10-17T03:01:45;16.90;99.90
16523;DHT22;19889;52.546;13.348;2022-10-17T03:04:14;17.10;99.90
16523;DHT22;19889;52.546;13.348;2022-10-17T03:06:42;16.90;99.90
16523;DHT22;19889;52.546;13.348;2022-10-17T03:09:08;17.00;99.90
16523;DHT22;19889;52.546;13.348;2022-10-17T03:11:35;17.00;99.90
16523;DHT22;19889;52.546;13.348;2022-10-17T03:14:02;17.40;99.90
16523;DHT22;19889;52.546;13.348;2022-10-17T03:16:30;16.90;99.90
16523;DHT22;19889;52.546;13.348;2022-10-17T03:18:57;16.90;99.90
16523;DHT22;19889;52.546;13.348;2022-10-17T03:21:25;16.90;99.90
16523;DHT22;19889;52.546;13.348;2022-10-17T03:23:52;16.90;99.90
16523;DHT22;19889;52.546;13.348;2022-10-17T03:26:21;16.90;99.90
16523;DHT22;19889;52.546;13.348;2022-10-17T03:28:48;16.90;99.90
16523;DHT22;19889;52.546;13.348;2022-10-17T03:31:15;16.90;99.90
16523;DHT22;19889;52.546;13.348;2022-10-17T03:33:43;16.90;99.90
16523;DHT22;19889;52.546;13.348;2022-10-17T03:36:12;16.90;99.90
16523;DHT22;19889;52.546;13.348;2022-10-17T03:38:41;16.90;99.90
16523;DHT22;19889;52.546;13.348;2022-10-17T03:41:08;16.90;99.90
16523;DHT22;19889;52.546;13.348;2022-10-17T03:43:36;16.90;99.90
16523;DHT22;19889;52.546;13.348;2022-10-17T03:46:03;16.90;99.90
16523;DHT22;19889;52.546;13.348;2022-10-17T03:48:31;16.90;99.90
16523;DHT22;19889;52.546;13.348;2022-10-17T03:50:59;16.90;99.90
16523;DHT22;19889;52.546;13.348;2022-10-17T03:53:27;16.90;99.90
16523;DHT22;19889;52.546;13.348;2022-10-17T03:56:07;16.90;99.90
16523;DHT22;19889;52.546;13.348;2022-10-17T03:58:34;16.90;99.90
16523;DHT22;19889;52.546;13.348;2022-10-17T04:01:03;16.90;99.90
16523;DHT22;19889;52.546;13.348;2022-10-17T04:03:30;16.90;99.90
16523;DHT22;19889;52.546;13.348;2022-10-17T04:05:58;16.90;99.90
16523;DHT22;19889;52.546;13.348;2022-10-17T04:08:25;16.90;99.90
16523;DHT22;19889;52.546;13.348;2022-10-17T04:11:14;16.90;99.90
16523;DHT22;19889;52.546;13.348;2022-10-17T04:13:42;16.90;99.90
16523;DHT22;19889;52.546;13.348;2022-10-17T04:16:11;16.80;99.90
16523;DHT22;19889;52.546;13.348;2022-10-17T04:18:45;16.80;99.90
16523;DHT22;19889;52.546;13.348;2022-10-17T04:21:12;16.80;99.90
16523;DHT22;19889;52.546;13.348;2022-10-17T04:23:39;16.90;99.90
16523;DHT22;19889;52.546;13.348;2022-10-17T04:26:18;16.80;99.90
16523;DHT22;19889;52.546;13.348;2022-10-17T04:28:44;16.80;99.90
16523;DHT22;19889;52.546;13.348;2022-10-17T04:31:13;16.80;99.90
16523;DHT22;19889;52.546;13.348;2022-10-17T04:33:59;16.80;99.90
16523;DHT22;19889;52.546;13.348;2022-10-17T04:36:26;16.80;99.90
16523;DHT22;19889;52.546;13.348;2022-10-17T04:38:53;16.80;99.90
16523;DHT22;19889;52.546;13.348;2022-10-17T04:41:21;16.80;99.90
16523;DHT22;19889;52.546;13.348;2022-10-17T04:43:48;16.80;99.90
16523;DHT22;19889;52.546;13.348;2022-10-17T04:46:15;16.80;99.90
16523;DHT22;19889;52.546;13.348;2022-10-17T04:48:43;16.80;99.90
16523;DHT22;19889;52.546;13.348;2022-10-17T04:51:12;16.80;99.90
16523;DHT22;19889;52.546;13.348;2022-10-17T04:53:58;16.70;99.90
16523;DHT22;19889;52.546;13.348;2022-10-17T04:56:26;16.70;99.90
16523;DHT22;19889;52.546;13.348;2022-10-17T04:58:53;16.70;99.90
16523;DHT22;19889;52.546;13.348;2022-10-17T05:01:22;16.70;99.90
16523;DHT22;19889;52.546;13.348;2022-10-17T05:03:52;16.70;99.90
16523;DHT22;19889;52.546;13.348;2022-10-17T05:06:20;16.70;99.90
16523;DHT22;19889;52.546;13.348;2022-10-17T05:09:04;16.70;99.90
16523;DHT22;19889;52.546;13.348;2022-10-17T05:11:32;16.70;99.90
16523;DHT22;19889;52.546;13.348;2022-10-17T05:14:01;16.60;99.90
16523;DHT22;19889;52.546;13.348;2022-10-17T05:16:31;16.60;99.90
16523;DHT22;19889;52.546;13.348;2022-10-17T05:18:58;16.70;99.90
16523;DHT22;19889;52.546;13.348;2022-10-17T05:21:30;16.60;99.90
16523;DHT22;19889;52.546;13.348;2022-10-17T05:23:57;16.50;99.90
16523;DHT22;19889;52.546;13.348;2022-10-17T05:26:25;16.50;99.90
16523;DHT22;19889;52.546;13.348;2022-10-17T05:28:53;16.50;99.90
16523;DHT22;19889;52.546;13.348;2022-10-17T05:31:23;16.50;99.90
16523;DHT22;19889;52.546;13.348;2022-10-17T05:33:50;16.50;99.90
16523;DHT22;19889;52.546;13.348;2022-10-17T05:36:17;16.50;99.90
16523;DHT22;19889;52.546;13.348;2022-10-17T05:38:48;16.50;99.90
16523;DHT22;19889;52.546;13.348;2022-10-17T05:41:14;16.50;99.90
16523;DHT22;19889;52.546;13.348;2022-10-17T05:43:41;16.50;99.90
16523;DHT22;19889;52.546;13.348;2022-10-17T05:46:11;16.50;99.90
16523;DHT22;19889;52.546;13.348;2022-10-17T05:48:38;16.50;99.90
16523;DHT22;19889;52.546;13.348;2022-10-17T05:51:07;16.50;99.90
16523;DHT22;19889;52.546;13.348;2022-10-17T05:53:36;16.50;99.90
16523;DHT22;19889;52.546;13.348;2022-10-17T05:56:07;16.50;99.90
16523;DHT22;19889;52.546;13.348;2022-10-17T05:58:35;16.50;99.90
16523;DHT22;19889;52.546;13.348;2022-10-17T06:01:06;16.50;99.90
16523;DHT22;19889;52.546;13.348;2022-10-17T06:03:34;16.50;99.90
16523;DHT22;19889;52.546;13.348;2022-10-17T06:06:04;16.50;99.90
16523;DHT22;19889;52.546;13.348;2022-10-17T06:08:32;16.50;99.90
16523;DHT22;19889;52.546;13.348;2022-10-17T06:10:59;16.50;99.90
16523;DHT22;19889;52.546;13.348;2022-10-17T06:13:28;16.50;99.90
16523;DHT22;19889;52.546;13.348;2022-10-17T06:15:58;16.60;99.90
16523;DHT22;19889;52.546;13.348;2022-10-17T06:18:25;16.20;99.90
16523;DHT22;19889;52.546;13.348;2022-10-17T06:21:01;16.60;99.90
16523;DHT22;19889;52.546;13.348;2022-10-17T06:23:28;16.60;99.90
16523;DHT22;19889;52.546;13.348;2022-10-17T06:26:00;16.60;99.90
16523;DHT22;19889;52.546;13.348;2022-10-17T06:28:28;16.60;99.90
16523;DHT22;19889;52.546;13.348;2022-10-17T06:30:56;16.60;99.90
16523;DHT22;19889;52.546;13.348;2022-10-17T06:33:23;16.60;99.90
16523;DHT22;19889;52.546;13.348;2022-10-17T06:35:51;16.60;99.90
16523;DHT22;19889;52.546;13.348;2022-10-17T06:38:21;16.60;99.90
16523;DHT22;19889;52.546;13.348;2022-10-17T06:40:50;16.60;99.90
16523;DHT22;19889;52.546;13.348;2022-10-17T06:43:18;16.60;99.90
16523;DHT22;19889;52.546;13.348;2022-10-17T06:46:12;16.60;99.90
16523;DHT22;19889;52.546;13.348;2022-10-17T06:48:51;16.60;99.90
16523;DHT22;19889;52.546;13.348;2022-10-17T06:51:28;16.60;99.90
16523;DHT22;19889;52.546;13.348;2022-10-17T06:53:58;16.70;99.90
16523;DHT22;19889;52.546;13.348;2022-10-17T06:56:32;16.60;99.90
16523;DHT22;19889;52.546;13.348;2022-10-17T06:59:14;16.70;99.90
16523;DHT22;19889;52.546;13.348;2022-10-17T07:01:49;16.70;99.90
16523;DHT22;19889;52.546;13.348;2022-10-17T07:04:15;16.70;99.90
16523;DHT22;19889;52.546;13.348;2022-10-17T07:06:42;16.70;99.90
16523;DHT22;19889;52.546;13.348;2022-10-17T07:09:16;16.70;99.90
16523;DHT22;19889;52.546;13.348;2022-10-17T07:11:43;16.70;99.90
16523;DHT22;19889;52.546;13.348;2022-10-17T07:14:10;16.80;99.90
16523;DHT22;19889;52.546;13.348;2022-10-17T07:16:37;16.80;99.90
16523;DHT22;19889;52.546;13.348;2022-10-17T07:19:14;16.80;99.90
16523;DHT22;19889;52.546;13.348;2022-10-17T07:21:40;16.80;99.90
16523;DHT22;19889;52.546;13.348;2022-10-17T07:24:09;16.80;99.90
16523;DHT22;19889;52.546;13.348;2022-10-17T07:26:39;16.80;99.90
16523;DHT22;19889;52.546;13.348;2022-10-17T07:29:06;16.90;99.90
16523;DHT22;19889;52.546;13.348;2022-10-17T07:31:37;16.90;99.90
16523;DHT22;19889;52.546;13.348;2022-10-17T07:34:03;16.90;99.90
16523;DHT22;19889;52.546;13.348;2022-10-17T07:36:30;16.90;99.90
16523;DHT22;19889;52.546;13.348;2022-10-17T07:38:59;16.90;99.90
16523;DHT22;19889;52.546;13.348;2022-10-17T07:41:26;17.00;99.90
16523;DHT22;19889;52.546;13.348;2022-10-17T07:43:54;17.00;99.90
16523;DHT22;19889;52.546;13.348;2022-10-17T07:46:27;17.00;99.90
16523;DHT22;19889;52.546;13.348;2022-10-17T07:48:54;17.00;99.90
16523;DHT22;19889;52.546;13.348;2022-10-17T07:51:21;17.00;99.90
16523;DHT22;19889;52.546;13.348;2022-10-17T07:53:48;17.10;99.90
16523;DHT22;19889;52.546;13.348;2022-10-17T07:56:15;17.10;99.90
16523;DHT22;19889;52.546;13.348;2022-10-17T07:58:41;17.10;99.90
16523;DHT22;19889;52.546;13.348;2022-10-17T08:01:10;17.20;99.90
16523;DHT22;19889;52.546;13.348;2022-10-17T08:03:39;17.20;99.90
16523;DHT22;19889;52.546;13.348;2022-10-17T08:06:06;17.20;99.90
16523;DHT22;19889;52.546;13.348;2022-10-17T08:08:32;17.30;99.90
16523;DHT22;19889;52.546;13.348;2022-10-17T08:11:01;17.40;99.90
16523;DHT22;19889;52.546;13.348;2022-10-17T08:13:28;17.50;99.90
16523;DHT22;19889;52.546;13.348;2022-10-17T08:15:58;17.70;99.90
16523;DHT22;19889;52.546;13.348;2022-10-17T08:18:26;17.90;99.90
16523;DHT22;19889;52.546;13.348;2022-10-17T08:20:53;18.00;99.90
16523;DHT22;19889;52.546;13.348;2022-10-17T08:23:20;18.10;99.90
16523;DHT22;19889;52.546;13.348;2022-10-17T08:25:47;18.10;99.90
16523;DHT22;19889;52.546;13.348;2022-10-17T08:28:14;18.10;99.90
16523;DHT22;19889;52.546;13.348;2022-10-17T08:30:40;18.20;99.90
16523;DHT22;19889;52.546;13.348;2022-10-17T08:33:07;18.20;99.90
16523;DHT22;19889;52.546;13.348;2022-10-17T08:35:35;18.10;99.90
16523;DHT22;19889;52.546;13.348;2022-10-17T08:38:02;18.20;99.90
16523;DHT22;19889;52.546;13.348;2022-10-17T08:40:30;18.20;99.90
16523;DHT22;19889;52.546;13.348;2022-10-17T08:43:22;18.20;99.90
16523;DHT22;19889;52.546;13.348;2022-10-17T08:45:55;18.20;99.90
16523;DHT22;19889;52.546;13.348;2022-10-17T08:48:27;18.20;99.90
16523;DHT22;19889;52.546;13.348;2022-10-17T08:50:58;18.20;99.90
16523;DHT22;19889;52.546;13.348;2022-10-17T08:53:30;18.30;99.90
16523;DHT22;19889;52.546;13.348;2022-10-17T08:56:05;18.20;99.90
16523;DHT22;19889;52.546;13.348;2022-10-17T08:58:34;18.20;99.90
16523;DHT22;19889;52.546;13.348;2022-10-17T09:01:05;18.30;99.90
16523;DHT22;19889;52.546;13.348;2022-10-17T09:03:44;18.30;99.90
16523;DHT22;19889;52.546;13.348;2022-10-17T09:06:21;18.30;99.90
16523;DHT22;19889;52.546;13.348;2022-10-17T09:09:05;18.40;99.90
16523;DHT22;19889;52.546;13.348;2022-10-17T09:11:47;18.30;99.90
16523;DHT22;19889;52.546;13.348;2022-10-17T09:14:37;18.40;99.90
16523;DHT22;19889;52.546;13.348;2022-10-17T09:17:15;18.40;99.90
16523;DHT22;19889;52.546;13.348;2022-10-17T09:19:51;18.40;99.90
16523;DHT22;19889;52.546;13.348;2022-10-17T09:22:27;18.50;99.90
16523;DHT22;19889;52.546;13.348;2022-10-17T09:24:58;18.50;99.90
16523;DHT22;19889;52.546;13.348;2022-10-17T09:27:34;18.60;99.90
16523;DHT22;19889;52.546;13.348;2022-10-17T09:32:56;18.60;99.90
16523;DHT22;19889;52.546;13.348;2022-10-17T09:35:23;18.70;99.90
16523;DHT22;19889;52.546;13.348;2022-10-17T09:37:52;18.70;99.90
16523;DHT22;19889;52.546;13.348;2022-10-17T09:40:24;18.00;99.90
16523;DHT22;19889;52.546;13.348;2022-10-17T09:42:52;18.70;99.90
16523;DHT22;19889;52.546;13.348;2022-10-17T09:45:21;18.80;99.90
16523;DHT22;19889;52.546;13.348;2022-10-17T09:47:56;18.80;99.90
16523;DHT22;19889;52.546;13.348;2022-10-17T09:50:27;18.80;99.90
16523;DHT22;19889;52.546;13.348;2022-10-17T09:52:58;18.90;99.90
16523;DHT22;19889;52.546;13.348;2022-10-17T09:55:31;18.90;99.90
16523;DHT22;19889;52.546;13.348;2022-10-17T09:58:01;18.90;99.90
16523;DHT22;19889;52.546;13.348;2022-10-17T10:00:30;19.00;99.90
16523;DHT22;19889;52.546;13.348;2022-10-17T10:03:15;19.00;99.90
16523;DHT22;19889;52.546;13.348;2022-10-17T10:05:57;19.10;99.90
16523;DHT22;19889;52.546;13.348;2022-10-17T10:08:28;19.10;99.90
16523;DHT22;19889;52.546;13.348;2022-10-17T10:11:01;19.10;99.90
16523;DHT22;19889;52.546;13.348;2022-10-17T10:13:30;19.20;99.90
16523;DHT22;19889;52.546;13.348;2022-10-17T10:16:14;20.80;99.90
16523;DHT22;19889;52.546;13.348;2022-10-17T10:18:42;19.30;99.90
16523;DHT22;19889;52.546;13.348;2022-10-17T10:21:11;19.30;99.90
16523;DHT22;19889;52.546;13.348;2022-10-17T10:23:41;19.30;99.90
16523;DHT22;19889;52.546;13.348;2022-10-17T10:26:20;19.30;99.90
16523;DHT22;19889;52.546;13.348;2022-10-17T10:28:54;19.40;99.90
16523;DHT22;19889;52.546;13.348;2022-10-17T10:31:26;19.40;99.90
16523;DHT22;19889;52.546;13.348;2022-10-17T10:33:53;19.60;99.90
16523;DHT22;19889;52.546;13.348;2022-10-17T10:36:20;19.50;99.90
16523;DHT22;19889;52.546;13.348;2022-10-17T10:38:53;19.50;99.90
16523;DHT22;19889;52.546;13.348;2022-10-17T10:41:22;19.50;99.90
16523;DHT22;19889;52.546;13.348;2022-10-17T10:43:53;19.50;99.90
16523;DHT22;19889;52.546;13.348;2022-10-17T10:46:22;20.70;99.90
16523;DHT22;19889;52.546;13.348;2022-10-17T10:48:52;19.50;99.90
16523;DHT22;19889;52.546;13.348;2022-10-17T10:51:22;19.60;99.90
16523;DHT22;19889;52.546;13.348;2022-10-17T10:53:56;19.70;99.90
16523;DHT22;19889;52.546;13.348;2022-10-17T10:56:29;19.70;99.90
16523;DHT22;19889;52.546;13.348;2022-10-17T10:59:03;19.80;99.90
16523;DHT22;19889;52.546;13.348;2022-10-17T11:01:38;19.80;99.90
16523;DHT22;19889;52.546;13.348;2022-10-17T11:04:22;19.80;99.90
16523;DHT22;19889;52.546;13.348;2022-10-17T11:06:54;19.80;99.90
16523;DHT22;19889;52.546;13.348;2022-10-17T11:09:33;19.90;99.90
16523;DHT22;19889;52.546;13.348;2022-10-17T11:12:10;19.90;99.90
16523;DHT22;19889;52.546;13.348;2022-10-17T11:14:42;20.00;99.90
16523;DHT22;19889;52.546;13.348;2022-10-17T11:17:17;20.00;99.90
16523;DHT22;19889;52.546;13.348;2022-10-17T11:19:51;20.10;99.90
16523;DHT22;19889;52.546;13.348;2022-10-17T11:22:26;20.10;99.90
16523;DHT22;19889;52.546;13.348;2022-10-17T11:24:58;20.10;99.90
16523;DHT22;19889;52.546;13.348;2022-10-17T11:27:27;20.10;99.90
16523;DHT22;19889;52.546;13.348;2022-10-17T11:29:55;20.50;99.90
16523;DHT22;19889;52.546;13.348;2022-10-17T11:32:26;20.20;99.90
16523;DHT22;19889;52.546;13.348;2022-10-17T11:35:00;20.20;99.90
16523;DHT22;19889;52.546;13.348;2022-10-17T11:37:31;20.30;99.90
16523;DHT22;19889;52.546;13.348;2022-10-17T11:40:05;20.30;99.90
16523;DHT22;19889;52.546;13.348;2022-10-17T11:42:37;20.40;99.90
16523;DHT22;19889;52.546;13.348;2022-10-17T11:45:14;20.40;99.90
16523;DHT22;19889;52.546;13.348;2022-10-17T11:47:45;20.40;99.90
16523;DHT22;19889;52.546;13.348;2022-10-17T11:50:22;20.40;99.90
16523;DHT22;19889;52.546;13.348;2022-10-17T11:52:53;19.70;99.90
16523;DHT22;19889;52.546;13.348;2022-10-17T11:55:25;20.60;99.90
16523;DHT22;19889;52.546;13.348;2022-10-17T11:58:00;20.60;99.90
16523;DHT22;19889;52.546;13.348;2022-10-17T12:00:37;20.70;99.90
16523;DHT22;19889;52.546;13.348;2022-10-17T12:03:19;20.70;99.90
16523;DHT22;19889;52.546;13.348;2022-10-17T12:05:53;20.80;99.90
16523;DHT22;19889;52.546;13.348;2022-10-17T12:08:27;20.80;99.90
16523;DHT22;19889;52.546;13.348;2022-10-17T12:11:01;20.70;99.90
16523;DHT22;19889;52.546;13.348;2022-10-17T12:13:52;20.80;99.90
16523;DHT22;19889;52.546;13.348;2022-10-17T12:16:44;20.80;99.90
16523;DHT22;19889;52.546;13.348;2022-10-17T12:19:20;20.90;99.90
16523;DHT22;19889;52.546;13.348;2022-10-17T12:21:55;20.90;99.90
16523;DHT22;19889;52.546;13.348;2022-10-17T12:24:30;21.00;99.90
16523;DHT22;19889;52.546;13.348;2022-10-17T12:27:30;20.90;99.90
16523;DHT22;19889;52.546;13.348;2022-10-17T12:29:59;21.00;99.90
16523;DHT22;19889;52.546;13.348;2022-10-17T12:32:26;21.00;99.90
16523;DHT22;19889;52.546;13.348;2022-10-17T12:34:54;21.00;99.90
16523;DHT22;19889;52.546;13.348;2022-10-17T12:37:58;21.20;99.90
16523;DHT22;19889;52.546;13.348;2022-10-17T12:40:56;21.10;99.90
16523;DHT22;19889;52.546;13.348;2022-10-17T12:43:49;21.10;99.90
16523;DHT22;19889;52.546;13.348;2022-10-17T12:49:23;21.20;99.90
16523;DHT22;19889;52.546;13.348;2022-10-17T12:52:28;21.20;99.90
16523;DHT22;19889;52.546;13.348;2022-10-17T12:55:15;21.20;99.90
16523;DHT22;19889;52.546;13.348;2022-10-17T12:58:04;21.20;99.90
16523;DHT22;19889;52.546;13.348;2022-10-17T13:00:36;21.30;99.90
16523;DHT22;19889;52.546;13.348;2022-10-17T13:03:11;21.30;99.90
16523;DHT22;19889;52.546;13.348;2022-10-17T13:05:41;21.30;99.90
16523;DHT22;19889;52.546;13.348;2022-10-17T13:08:15;21.20;99.90
16523;DHT22;19889;52.546;13.348;2022-10-17T13:10:45;21.20;99.90
16523;DHT22;19889;52.546;13.348;2022-10-17T13:13:15;21.40;99.90
16523;DHT22;19889;52.546;13.348;2022-10-17T13:15:47;21.30;99.90
16523;DHT22;19889;52.546;13.348;2022-10-17T13:18:18;21.30;99.90
16523;DHT22;19889;52.546;13.348;2022-10-17T13:20:58;21.30;99.90
16523;DHT22;19889;52.546;13.348;2022-10-17T13:23:29;21.40;99.90
16523;DHT22;19889;52.546;13.348;2022-10-17T13:26:12;21.40;99.90
16523;DHT22;19889;52.546;13.348;2022-10-17T13:28:39;21.40;99.90
16523;DHT22;19889;52.546;13.348;2022-10-17T13:31:26;20.80;99.90
16523;DHT22;19889;52.546;13.348;2022-10-17T13:33:55;21.60;99.90
16523;DHT22;19889;52.546;13.348;2022-10-17T13:36:23;21.70;99.90
16523;DHT22;19889;52.546;13.348;2022-10-17T13:38:50;22.00;99.90
16523;DHT22;19889;52.546;13.348;2022-10-17T13:41:23;21.60;99.90
16523;DHT22;19889;52.546;13.348;2022-10-17T13:43:51;21.70;99.90
16523;DHT22;19889;52.546;13.348;2022-10-17T13:46:25;21.70;99.90
16523;DHT22;19889;52.546;13.348;2022-10-17T13:48:52;21.80;99.90
16523;DHT22;19889;52.546;13.348;2022-10-17T13:51:19;21.60;99.90
16523;DHT22;19889;52.546;13.348;2022-10-17T13:53:46;21.70;99.90
16523;DHT22;19889;52.546;13.348;2022-10-17T13:56:18;21.80;99.90
16523;DHT22;19889;52.546;13.348;2022-10-17T13:58:47;21.80;99.90
16523;DHT22;19889;52.546;13.348;2022-10-17T14:01:15;21.80;99.90
16523;DHT22;19889;52.546;13.348;2022-10-17T14:03:44;21.70;99.90
16523;DHT22;19889;52.546;13.348;2022-10-17T14:06:15;21.70;99.90
16523;DHT22;19889;52.546;13.348;2022-10-17T14:08:55;21.70;99.90
16523;DHT22;19889;52.546;13.348;2022-10-17T14:11:28;21.80;99.90
16523;DHT22;19889;52.546;13.348;2022-10-17T14:13:56;21.80;99.90
16523;DHT22;19889;52.546;13.348;2022-10-17T14:16:24;21.80;99.90
16523;DHT22;19889;52.546;13.348;2022-10-17T14:18:54;21.80;99.90
16523;DHT22;19889;52.546;13.348;2022-10-17T14:21:23;21.80;99.90
16523;DHT22;19889;52.546;13.348;2022-10-17T14:23:51;21.80;99.90
16523;DHT22;19889;52.546;13.348;2022-10-17T14:26:20;21.80;99.90
16523;DHT22;19889;52.546;13.348;2022-10-17T14:28:49;21.80;99.90
16523;DHT22;19889;52.546;13.348;2022-10-17T14:31:27;21.90;99.90
16523;DHT22;19889;52.546;13.348;2022-10-17T14:33:56;21.90;99.90
16523;DHT22;19889;52.546;13.348;2022-10-17T14:36:38;21.90;99.90
16523;DHT22;19889;52.546;13.348;2022-10-17T14:39:15;22.00;99.90
16523;DHT22;19889;52.546;13.348;2022-10-17T14:41:45;22.00;99.90
16523;DHT22;19889;52.546;13.348;2022-10-17T14:44:19;21.90;99.90
16523;DHT22;19889;52.546;13.348;2022-10-17T14:46:49;22.00;99.90
16523;DHT22;19889;52.546;13.348;2022-10-17T14:49:22;22.00;99.90
16523;DHT22;19889;52.546;13.348;2022-10-17T14:52:10;21.90;99.90
16523;DHT22;19889;52.546;13.348;2022-10-17T14:54:37;21.90;99.90
16523;DHT22;19889;52.546;13.348;2022-10-17T14:57:12;21.90;99.90
16523;DHT22;19889;52.546;13.348;2022-10-17T14:59:40;21.90;99.90
16523;DHT22;19889;52.546;13.348;2022-10-17T15:02:07;21.80;99.90
16523;DHT22;19889;52.546;13.348;2022-10-17T15:04:36;21.90;99.90
16523;DHT22;19889;52.546;13.348;2022-10-17T15:07:02;21.90;99.90
16523;DHT22;19889;52.546;13.348;2022-10-17T15:09:29;21.80;99.90
16523;DHT22;19889;52.546;13.348;2022-10-17T15:11:59;21.80;99.90
16523;DHT22;19889;52.546;13.348;2022-10-17T15:14:26;21.80;99.90
16523;DHT22;19889;52.546;13.348;2022-10-17T15:16:53;21.70;99.90
16523;DHT22;19889;52.546;13.348;2022-10-17T15:19:19;21.60;99.90
16523;DHT22;19889;52.546;13.348;2022-10-17T15:21:47;21.60;99.90
16523;DHT22;19889;52.546;13.348;2022-10-17T15:24:14;21.60;99.90
16523;DHT22;19889;52.546;13.348;2022-10-17T15:26:41;21.60;99.90
16523;DHT22;19889;52.546;13.348;2022-10-17T15:29:09;21.50;99.90
16523;DHT22;19889;52.546;13.348;2022-10-17T15:31:39;21.50;99.90
16523;DHT22;19889;52.546;13.348;2022-10-17T15:34:06;21.50;99.90
16523;DHT22;19889;52.546;13.348;2022-10-17T15:36:38;21.50;99.90
16523;DHT22;19889;52.546;13.348;2022-10-17T15:39:08;21.40;99.90
16523;DHT22;19889;52.546;13.348;2022-10-17T15:41:35;21.60;99.90
16523;DHT22;19889;52.546;13.348;2022-10-17T15:44:01;21.40;99.90
16523;DHT22;19889;52.546;13.348;2022-10-17T15:46:31;21.40;99.90
16523;DHT22;19889;52.546;13.348;2022-10-17T15:49:02;21.40;99.90
16523;DHT22;19889;52.546;13.348;2022-10-17T15:51:29;21.40;99.90